Time;durP1;ratioP1;P1;durP2;ratioP2;P2;SDS_P1;SDS_P2;PMS_P1;PMS_P2;Temp;Humidity;BMP_temperature;BMP_pressure;BME280_temperature;BME280_humidity;BME280_pressure;Samples;Min_cycle;Max_cycle;Signal;HPM_P1;HPM_P2
2023/02/10 00:00:18;;;;;;;18.20;6.30;;;;;;;6.03;69.14;103667.16;5044091;28;20037;-41
2023/02/10 00:02:43;;;;;;;18.38;6.18;;;;;;;6.07;69.23;103667.50;5041113;28;20029;-40
2023/02/10 00:05:09;;;;;;;17.85;6.50;;;;;;;6.11;68.81;103671.22;5044781;28;20033;-44
2023/02/10 00:07:34;;;;;;;13.40;5.88;;;;;;;6.17;68.70;103668.19;5040714;28;20179;-41
2023/02/10 00:09:59;;;;;;;14.85;6.00;;;;;;;6.18;68.98;103662.22;5045734;28;20032;-42
2023/02/10 00:12:25;;;;;;;14.95;5.75;;;;;;;6.18;68.79;103667.41;5039900;28;20033;-40
2023/02/10 00:14:50;;;;;;;15.52;5.95;;;;;;;6.20;69.09;103652.91;5044253;28;20067;-40
2023/02/10 00:17:17;;;;;;;17.35;6.32;;;;;;;6.29;69.86;103658.75;5044524;28;20246;-40
2023/02/10 00:19:42;;;;;;;16.42;6.55;;;;;;;6.29;70.35;103658.75;5040624;28;21241;-40
2023/02/10 00:22:08;;;;;;;19.20;6.10;;;;;;;6.42;69.48;103651.09;5043381;28;20029;-43
2023/02/10 00:24:33;;;;;;;15.38;6.07;;;;;;;6.46;69.19;103647.97;5040322;28;20037;-41
2023/02/10 00:26:59;;;;;;;14.77;6.15;;;;;;;6.46;69.24;103654.03;5044625;28;20056;-41
2023/02/10 00:29:25;;;;;;;18.65;6.07;;;;;;;6.36;69.55;103638.59;5040442;28;20029;-42
2023/02/10 00:31:51;;;;;;;15.38;6.60;;;;;;;6.33;69.85;103637.50;5043694;28;20064;-42
2023/02/10 00:34:17;;;;;;;16.88;6.60;;;;;;;6.39;69.54;103638.84;5044192;28;20129;-42
2023/02/10 00:36:43;;;;;;;17.33;6.60;;;;;;;6.42;69.02;103644.25;5040741;28;20041;-44
2023/02/10 00:39:15;;;;;;;15.02;6.68;;;;;;;6.38;68.56;103631.84;5044492;28;20339;-40
2023/02/10 00:41:41;;;;;;;17.33;7.78;;;;;;;6.32;68.87;103638.28;5042689;28;20033;-41
2023/02/10 00:44:06;;;;;;;17.50;6.68;;;;;;;6.28;68.40;103639.72;5047307;28;20041;-41
2023/02/10 00:46:32;;;;;;;17.42;7.22;;;;;;;6.26;68.39;103645.59;5041048;28;20072;-40
2023/02/10 00:48:58;;;;;;;18.05;7.55;;;;;;;6.11;68.68;103638.47;5043860;28;20043;-40
2023/02/10 00:51:23;;;;;;;16.50;7.38;;;;;;;6.13;68.44;103650.63;5038769;28;20024;-41
2023/02/10 00:53:52;;;;;;;17.52;7.80;;;;;;;6.08;68.57;103650.28;5043836;28;20041;-41
2023/02/10 00:56:19;;;;;;;18.35;7.90;;;;;;;6.06;68.81;103657.03;5044101;28;20115;-40
2023/02/10 00:58:45;;;;;;;19.23;8.02;;;;;;;5.96;68.35;103654.53;5041456;28;20052;-40
2023/02/10 01:01:11;;;;;;;16.55;7.68;;;;;;;5.91;68.62;103658.47;5045685;28;20433;-42
2023/02/10 01:03:36;;;;;;;16.25;7.82;;;;;;;5.90;68.28;103661.84;5043834;28;20033;-43
2023/02/10 01:06:02;;;;;;;21.10;8.43;;;;;;;5.84;69.17;103650.97;5044268;28;20051;-40
2023/02/10 01:08:27;;;;;;;19.25;8.68;;;;;;;5.89;68.48;103660.94;5041954;28;20040;-40
2023/02/10 01:11:05;;;;;;;19.77;8.70;;;;;;;5.81;68.07;103662.00;5047645;28;20467;-41
2023/02/10 01:13:33;;;;;;;20.48;8.63;;;;;;;5.68;68.44;103649.78;5043984;28;20060;-43
2023/02/10 01:15:59;;;;;;;20.35;8.05;;;;;;;5.66;68.46;103653.97;5046249;28;20029;-41
2023/02/10 01:18:24;;;;;;;20.55;8.15;;;;;;;5.64;68.33;103650.34;5039768;28;20395;-40
2023/02/10 01:20:50;;;;;;;20.80;8.48;;;;;;;5.60;68.57;103650.00;5043180;28;20047;-43
2023/02/10 01:23:15;;;;;;;19.10;8.32;;;;;;;5.58;68.17;103654.13;5043756;28;20029;-40
2023/02/10 01:25:40;;;;;;;21.48;8.60;;;;;;;5.61;68.34;103663.03;5039479;28;20033;-40
2023/02/10 01:28:06;;;;;;;22.38;9.07;;;;;;;5.64;68.48;103663.28;5041940;28;20091;-42
2023/02/10 01:30:32;;;;;;;20.02;9.35;;;;;;;5.68;68.44;103660.13;5038272;28;20083;-41
2023/02/10 01:32:57;;;;;;;22.98;9.68;;;;;;;5.70;68.80;103662.84;5043053;28;20037;-40
2023/02/10 01:35:22;;;;;;;22.92;10.05;;;;;;;5.69;69.17;103668.81;5041523;28;20107;-40
2023/02/10 01:37:48;;;;;;;24.63;10.23;;;;;;;5.70;68.97;103668.03;5040088;28;20087;-40
2023/02/10 01:40:13;;;;;;;23.50;10.48;;;;;;;5.69;68.48;103671.41;5044035;28;20430;-40
2023/02/10 01:42:40;;;;;;;22.17;10.23;;;;;;;5.68;68.93;103679.94;5039315;28;20043;-42
2023/02/10 01:45:18;;;;;;;26.70;11.43;;;;;;;5.66;69.04;103682.44;5042490;28;20029;-44
2023/02/10 01:47:46;;;;;;;31.98;12.10;;;;;;;5.71;68.85;103687.97;5038749;28;20122;-40
2023/02/10 01:50:12;;;;;;;26.25;11.90;;;;;;;5.72;68.64;103690.66;5042230;28;20033;-43
2023/02/10 01:52:40;;;;;;;29.30;11.48;;;;;;;5.71;68.90;103694.03;5038220;28;20048;-42
2023/02/10 01:55:08;;;;;;;25.58;12.13;;;;;;;5.71;68.56;103691.44;5047484;28;20403;-41
2023/02/10 01:57:36;;;;;;;30.50;12.48;;;;;;;5.63;69.14;103682.19;5043807;28;20033;-40
2023/02/10 02:00:03;;;;;;;29.15;12.88;;;;;;;5.61;68.55;103683.72;5042717;28;20025;-41
2023/02/10 02:02:29;;;;;;;29.05;12.02;;;;;;;5.57;68.81;103673.94;5038154;28;20123;-40
2023/02/10 02:04:59;;;;;;;32.58;13.38;;;;;;;5.56;69.00;103677.31;5042585;28;20112;-39
2023/02/10 02:07:28;;;;;;;34.03;12.88;;;;;;;5.61;69.47;103677.69;5038704;28;20466;-40
2023/02/10 02:09:56;;;;;;;33.63;13.05;;;;;;;5.67;68.58;103671.25;5041888;28;20037;-40
2023/02/10 02:12:40;;;;;;;33.55;13.15;;;;;;;5.59;69.28;103666.28;5041571;28;20282;-42
2023/02/10 02:15:18;;;;;;;32.00;13.77;;;;;;;5.58;69.75;103656.72;5039083;28;20040;-42
2023/02/10 02:17:50;;;;;;;31.50;13.27;;;;;;;5.65;68.84;103659.00;5037107;28;20082;-40
2023/02/10 02:20:40;;;;;;;32.58;12.93;;;;;;;5.58;68.97;103665.41;5042248;28;20111;-41
2023/02/10 02:23:24;;;;;;;31.85;13.00;;;;;;;5.53;69.33;103671.91;5038297;28;20330;-40
2023/02/10 02:25:58;;;;;;;32.47;12.25;;;;;;;5.53;69.62;103671.00;5038375;28;20024;-39
2023/02/10 02:28:39;;;;;;;30.70;12.48;;;;;;;5.62;69.46;103666.53;5038312;28;20037;-40
2023/02/10 02:31:07;;;;;;;29.58;12.45;;;;;;;5.62;69.29;103663.94;5041125;28;20120;-40
2023/02/10 02:34:11;;;;;;;32.72;12.85;;;;;;;5.61;68.56;103662.16;5038445;28;20117;-40
2023/02/10 02:37:02;;;;;;;29.83;12.80;;;;;;;5.52;68.66;103674.34;4994334;28;20529;-41
2023/02/10 02:39:28;;;;;;;32.55;12.75;;;;;;;5.51;68.68;103688.06;5029029;28;20089;-40
2023/02/10 02:42:14;;;;;;;28.50;12.77;;;;;;;5.48;69.28;103690.44;5041339;28;20021;-40
2023/02/10 02:44:40;;;;;;;33.42;12.98;;;;;;;5.54;69.90;103696.09;5038285;28;20101;-42
2023/02/10 02:47:14;;;;;;;31.25;13.20;;;;;;;5.56;69.66;103703.19;5042020;28;20067;-40
2023/02/10 02:49:54;;;;;;;33.90;12.27;;;;;;;5.58;69.52;103698.13;5037450;28;20517;-41
2023/02/10 02:52:58;;;;;;;32.33;13.10;;;;;;;5.59;69.54;103694.75;5041157;28;20163;-43
2023/02/10 02:56:05;;;;;;;32.10;12.40;;;;;;;5.57;69.22;103694.63;5025174;28;20044;-41
2023/02/10 02:58:57;;;;;;;32.10;12.88;;;;;;;5.49;69.06;103697.44;5039441;28;20033;-41
2023/02/10 03:01:31;;;;;;;30.25;12.27;;;;;;;5.48;68.42;103701.69;5033321;28;20033;-40
2023/02/10 03:03:58;;;;;;;30.13;12.40;;;;;;;5.46;68.34;103695.47;5040107;28;20041;-39
2023/02/10 03:06:23;;;;;;;28.83;12.40;;;;;;;5.48;68.50;103703.38;5037804;28;20021;-44
2023/02/10 03:08:49;;;;;;;31.35;12.75;;;;;;;5.44;68.47;103701.31;5041804;28;20060;-43
2023/02/10 03:11:14;;;;;;;31.55;11.82;;;;;;;5.40;68.60;103702.75;5041079;28;20037;-41
2023/02/10 03:13:39;;;;;;;30.50;12.70;;;;;;;5.39;68.49;103708.72;5038888;28;20033;-41
2023/02/10 03:16:05;;;;;;;29.65;12.35;;;;;;;5.36;68.70;103712.75;5045835;28;20087;-43
2023/02/10 03:18:30;;;;;;;34.30;12.88;;;;;;;5.31;69.31;103708.09;5041624;28;20087;-41
2023/02/10 03:20:55;;;;;;;35.38;13.85;;;;;;;5.25;69.62;103712.78;5044885;28;20037;-41
2023/02/10 03:23:21;;;;;;;32.63;12.82;;;;;;;5.30;68.82;103708.91;5045938;28;20088;-41
2023/02/10 03:25:47;;;;;;;31.17;12.10;;;;;;;5.28;68.42;103709.53;5042190;28;20512;-42
2023/02/10 03:28:13;;;;;;;29.08;12.73;;;;;;;5.27;68.71;103702.56;5046082;28;20029;-41
2023/02/10 03:30:38;;;;;;;32.28;12.82;;;;;;;5.26;69.28;103705.94;5043565;28;20063;-40
2023/02/10 03:33:04;;;;;;;33.92;13.10;;;;;;;5.23;68.91;103704.00;5049034;28;20505;-40
2023/02/10 03:35:29;;;;;;;28.75;12.18;;;;;;;5.20;68.65;103705.44;5045051;28;20036;-41
2023/02/10 03:37:55;;;;;;;28.80;12.13;;;;;;;5.18;69.09;103705.34;5047875;28;20037;-40
2023/02/10 03:40:20;;;;;;;32.58;12.05;;;;;;;5.20;68.59;103705.44;5044188;28;20057;-39
2023/02/10 03:42:46;;;;;;;26.80;11.13;;;;;;;5.18;69.12;103700.16;5041714;28;20558;-40
2023/02/10 03:45:11;;;;;;;31.85;11.35;;;;;;;5.23;68.59;103705.69;5044915;28;20037;-43
2023/02/10 03:47:36;;;;;;;31.02;11.88;;;;;;;5.24;68.72;103699.75;5041015;28;20063;-43
2023/02/10 03:50:02;;;;;;;30.50;11.32;;;;;;;5.26;69.09;103688.72;5045098;28;20033;-45
2023/02/10 03:52:27;;;;;;;28.50;11.15;;;;;;;5.26;69.19;103691.31;5040443;28;20384;-40
2023/02/10 03:54:53;;;;;;;27.77;11.13;;;;;;;5.28;69.15;103696.63;5044829;28;20037;-40
2023/02/10 03:57:18;;;;;;;25.70;10.73;;;;;;;5.33;68.92;103695.28;5046691;28;20029;-41
2023/02/10 03:59:44;;;;;;;24.67;10.30;;;;;;;5.39;69.23;103700.03;5046334;28;20312;-41
2023/02/10 04:02:09;;;;;;;27.85;10.52;;;;;;;5.44;70.20;103704.78;5049720;28;20032;-42
2023/02/10 04:04:34;;;;;;;26.85;11.15;;;;;;;5.50;70.35;103702.69;5041410;28;20044;-43
2023/02/10 04:07:02;;;;;;;29.50;11.45;;;;;;;5.59;70.42;103706.03;5044770;28;20495;-43
2023/02/10 04:09:27;;;;;;;29.75;11.18;;;;;;;5.60;69.77;103699.16;5041540;28;20064;-41
2023/02/10 04:11:53;;;;;;;28.23;10.95;;;;;;;5.62;69.40;103703.66;5045463;28;20076;-42
2023/02/10 04:14:18;;;;;;;27.55;10.50;;;;;;;5.59;69.42;103711.19;5048562;28;20063;-41
2023/02/10 04:16:44;;;;;;;28.73;11.80;;;;;;;5.59;69.04;103716.38;5042363;28;20484;-40
2023/02/10 04:19:09;;;;;;;30.45;11.70;;;;;;;5.57;69.54;103715.34;5045715;28;20036;-43
2023/02/10 04:21:35;;;;;;;36.00;12.23;;;;;;;5.55;69.25;103718.59;5041756;28;20043;-40
2023/02/10 04:24:00;;;;;;;34.53;12.68;;;;;;;5.50;69.94;103715.63;5046291;28;20124;-41
2023/02/10 04:26:26;;;;;;;34.05;12.13;;;;;;;5.51;69.61;103714.84;5040723;28;20048;-40
2023/02/10 04:28:51;;;;;;;43.17;12.80;;;;;;;5.38;71.19;103712.06;5044711;28;20087;-40
2023/02/10 04:31:17;;;;;;;36.60;12.43;;;;;;;5.53;70.45;103700.38;5043882;28;20040;-38
2023/02/10 04:33:43;;;;;;;33.63;12.55;;;;;;;5.52;69.38;103710.59;5040426;28;20075;-41
2023/02/10 04:36:08;;;;;;;36.58;13.73;;;;;;;5.48;69.54;103714.63;5044287;28;20029;-42
2023/02/10 04:38:34;;;;;;;32.15;13.05;;;;;;;5.54;69.18;103714.22;5040576;28;20033;-39
2023/02/10 04:41:00;;;;;;;33.63;13.35;;;;;;;5.56;69.55;103705.75;5044602;28;20045;-40
2023/02/10 04:43:25;;;;;;;43.55;13.57;;;;;;;5.57;69.21;103709.25;5043585;28;20566;-41
2023/02/10 04:45:51;;;;;;;36.17;14.45;;;;;;;5.48;70.30;103706.88;5048358;28;20065;-40
2023/02/10 04:48:16;;;;;;;45.97;16.02;;;;;;;5.56;71.00;103694.50;5048959;28;20028;-41
2023/02/10 04:50:42;;;;;;;40.78;15.25;;;;;;;5.64;69.87;103701.19;5044165;28;20121;-43
2023/02/10 04:53:07;;;;;;;41.40;15.25;;;;;;;5.63;69.95;103708.06;5048609;28;20474;-40
2023/02/10 04:55:34;;;;;;;45.40;15.95;;;;;;;5.60;70.02;103712.09;5041103;28;20068;-41
2023/02/10 04:58:00;;;;;;;46.95;16.30;;;;;;;5.64;69.99;103708.97;5049079;28;20056;-42
2023/02/10 05:00:26;;;;;;;47.00;16.40;;;;;;;5.63;70.16;103713.22;5044525;28;20032;-40
2023/02/10 05:02:51;;;;;;;44.13;15.77;;;;;;;5.59;70.58;103711.19;5046639;28;20441;-41
2023/02/10 05:05:17;;;;;;;47.05;17.30;;;;;;;5.60;70.27;103707.84;5048890;28;20029;-41
2023/02/10 05:07:42;;;;;;;49.30;16.33;;;;;;;5.54;70.91;103706.44;5045042;28;20097;-43
2023/02/10 05:10:08;;;;;;;55.28;17.10;;;;;;;5.62;71.06;103705.34;5048438;28;20565;-41
2023/02/10 05:12:33;;;;;;;48.35;16.98;;;;;;;5.63;70.62;103697.69;5039366;28;20079;-42
2023/02/10 05:14:58;;;;;;;46.70;16.92;;;;;;;5.61;70.49;103690.63;5044338;28;20103;-41
2023/02/10 05:17:24;;;;;;;45.97;17.23;;;;;;;5.59;70.60;103698.25;5040166;28;20120;-42
2023/02/10 05:19:49;;;;;;;57.83;17.98;;;;;;;5.59;70.85;103698.25;5043809;28;20120;-39
2023/02/10 05:22:14;;;;;;;52.25;17.90;;;;;;;5.60;70.96;103691.41;5042726;28;20576;-40
2023/02/10 05:24:40;;;;;;;53.25;17.83;;;;;;;5.64;70.55;103683.06;5039397;28;20068;-40
2023/02/10 05:27:05;;;;;;;50.92;18.10;;;;;;;5.63;70.12;103694.22;5043647;28;20036;-41
2023/02/10 05:29:30;;;;;;;49.03;17.88;;;;;;;5.60;70.13;103689.72;5039972;28;20247;-40
2023/02/10 05:31:56;;;;;;;52.58;17.92;;;;;;;5.55;70.29;103708.25;5043009;28;20029;-41
2023/02/10 05:34:21;;;;;;;48.78;17.63;;;;;;;5.54;70.22;103709.03;5043245;28;20454;-43
2023/02/10 05:36:46;;;;;;;56.00;18.70;;;;;;;5.47;70.99;103699.88;5039145;28;20112;-41
2023/02/10 05:39:24;;;;;;;49.70;17.95;;;;;;;5.54;70.87;103691.81;5043108;28;20032;-46
2023/02/10 05:41:51;;;;;;;53.33;19.27;;;;;;;5.50;70.94;103674.22;5039019;28;20025;-41
2023/02/10 05:44:16;;;;;;;54.38;18.92;;;;;;;5.53;70.92;103674.50;5046480;28;20033;-42
2023/02/10 05:46:42;;;;;;;55.20;19.83;;;;;;;5.50;71.05;103670.75;5042249;28;21631;-41
2023/02/10 05:49:07;;;;;;;53.00;18.90;;;;;;;5.51;70.51;103676.03;5045434;28;20033;-40
2023/02/10 05:51:33;;;;;;;51.78;18.65;;;;;;;5.41;71.58;103675.22;5038601;28;20032;-43
2023/02/10 05:53:58;;;;;;;48.83;18.30;;;;;;;5.44;70.98;103678.03;5045081;28;20029;-41
2023/02/10 05:56:23;;;;;;;53.67;18.27;;;;;;;5.20;72.55;103687.34;5043016;28;20043;-39
2023/02/10 05:58:48;;;;;;;45.38;18.13;;;;;;;5.58;71.47;103696.44;5046856;28;20067;-40
2023/02/10 06:01:15;;;;;;;55.05;17.83;;;;;;;5.61;71.99;103700.97;5043737;28;20052;-41
2023/02/10 06:03:40;;;;;;;49.22;17.60;;;;;;;5.53;72.60;103697.78;5042237;28;20040;-42
2023/02/10 06:06:05;;;;;;;52.08;18.27;;;;;;;5.63;71.76;103707.16;5046699;28;20124;-42
2023/02/10 06:08:31;;;;;;;51.58;18.17;;;;;;;5.77;71.36;103708.22;5041138;28;20215;-42
2023/02/10 06:10:56;;;;;;;46.90;17.05;;;;;;;5.74;71.39;103708.88;5042177;28;20083;-41
2023/02/10 06:13:22;;;;;;;46.10;17.15;;;;;;;5.77;71.14;103705.66;5042608;28;20040;-41
2023/02/10 06:15:47;;;;;;;47.25;18.17;;;;;;;5.76;71.25;103701.25;5038527;28;20120;-43
2023/02/10 06:18:13;;;;;;;46.80;16.92;;;;;;;5.83;71.04;103704.44;5042724;28;20111;-42
2023/02/10 06:20:38;;;;;;;50.92;17.27;;;;;;;5.78;71.21;103712.63;5037685;28;20065;-47
2023/02/10 06:23:04;;;;;;;47.55;17.30;;;;;;;5.69;70.79;103710.22;5042248;28;20033;-40
2023/02/10 06:25:29;;;;;;;53.63;17.52;;;;;;;5.68;71.29;103721.34;5038734;28;20041;-41
2023/02/10 06:27:54;;;;;;;49.08;17.73;;;;;;;5.68;71.87;103732.59;5042367;28;20391;-41
2023/02/10 06:30:20;;;;;;;54.50;17.88;;;;;;;5.65;71.70;103731.47;5041765;28;20083;-40
2023/02/10 06:32:45;;;;;;;51.33;18.15;;;;;;;5.70;72.22;103738.81;5038748;28;20395;-42
2023/02/10 06:35:10;;;;;;;45.03;17.02;;;;;;;5.82;71.36;103735.38;5042222;28;20424;-41
2023/02/10 06:37:36;;;;;;;44.38;17.17;;;;;;;5.82;70.82;103750.91;5038453;28;20183;-40
2023/02/10 06:40:06;;;;;;;46.03;17.13;;;;;;;5.76;70.81;103742.66;5041911;28;20032;-37
2023/02/10 06:42:31;;;;;;;49.35;17.85;;;;;;;5.76;70.88;103747.84;5037950;28;20037;-42
2023/02/10 06:44:57;;;;;;;44.85;16.98;;;;;;;5.78;70.89;103742.00;5041857;28;20113;-41
2023/02/10 06:47:22;;;;;;;43.75;16.85;;;;;;;5.77;71.24;103735.03;5042246;28;20091;-42
2023/02/10 06:49:47;;;;;;;40.72;16.90;;;;;;;5.81;71.44;103729.28;5037497;28;20086;-42
2023/02/10 06:52:12;;;;;;;43.75;16.38;;;;;;;5.84;71.57;103726.97;5041674;28;20025;-40
2023/02/10 06:54:38;;;;;;;40.25;16.65;;;;;;;5.87;71.49;103726.28;5038289;28;20044;-40
2023/02/10 06:57:03;;;;;;;44.85;17.70;;;;;;;5.92;71.34;103718.13;5042616;28;20423;-40
2023/02/10 06:59:29;;;;;;;46.55;17.30;;;;;;;5.94;71.77;103718.25;5043742;28;20094;-46
2023/02/10 07:02:00;;;;;;;41.25;17.45;;;;;;;5.97;71.28;103714.22;5046659;28;20025;-41
2023/02/10 07:04:26;;;;;;;41.38;17.02;;;;;;;5.89;71.63;103706.63;5039656;28;20530;-41
2023/02/10 07:06:52;;;;;;;44.63;16.98;;;;;;;5.89;71.75;103707.53;5041939;28;20037;-40
2023/02/10 07:09:17;;;;;;;37.85;16.85;;;;;;;5.94;71.52;103708.78;5042282;28;20052;-42
2023/02/10 07:11:42;;;;;;;40.50;17.20;;;;;;;5.92;71.36;103718.13;5037895;28;20071;-42
2023/02/10 07:14:08;;;;;;;38.55;16.60;;;;;;;5.95;71.31;103731.31;5042142;28;20037;-41
2023/02/10 07:16:33;;;;;;;38.28;17.30;;;;;;;5.95;71.13;103735.59;5040062;28;20392;-41
2023/02/10 07:18:59;;;;;;;40.15;17.58;;;;;;;5.98;71.26;103733.22;5044113;28;20073;-43
2023/02/10 07:21:24;;;;;;;43.47;17.70;;;;;;;5.97;70.81;103740.13;5040557;28;20407;-45
2023/02/10 07:23:49;;;;;;;34.95;16.60;;;;;;;5.96;71.17;103743.47;5044323;28;20033;-41
2023/02/10 07:26:17;;;;;;;41.50;17.80;;;;;;;5.80;71.87;103749.88;5041615;28;20029;-41
2023/02/10 07:28:43;;;;;;;39.67;17.63;;;;;;;5.88;72.29;103762.69;5037869;28;21983;-40
2023/02/10 07:31:09;;;;;;;42.58;17.17;;;;;;;5.93;71.77;103763.03;5040813;28;20029;-42
2023/02/10 07:33:34;;;;;;;45.00;17.70;;;;;;;5.94;71.75;103763.16;5037669;28;20124;-41
2023/02/10 07:36:01;;;;;;;41.53;17.77;;;;;;;6.03;71.80;103758.72;5041978;28;20029;-39
2023/02/10 07:38:27;;;;;;;44.70;17.63;;;;;;;6.02;71.56;103737.88;5037891;28;20086;-42
2023/02/10 07:40:52;;;;;;;36.17;16.98;;;;;;;6.11;71.15;103742.06;5040406;28;20025;-43
2023/02/10 07:43:18;;;;;;;37.80;16.95;;;;;;;6.14;70.87;103756.03;5041727;28;20090;-40
2023/02/10 07:45:43;;;;;;;37.97;17.63;;;;;;;6.15;70.81;103755.25;5037355;28;20057;-40
2023/02/10 07:48:08;;;;;;;39.05;17.92;;;;;;;6.05;71.17;103754.53;5041515;28;20021;-40
2023/02/10 07:50:34;;;;;;;42.15;18.70;;;;;;;6.07;71.17;103754.66;5037208;28;20045;-40
2023/02/10 07:52:59;;;;;;;40.55;17.80;;;;;;;6.13;70.96;103754.22;5041609;28;20033;-40
2023/02/10 07:55:24;;;;;;;35.85;17.52;;;;;;;6.01;70.84;103759.38;5037532;28;20576;-42
2023/02/10 07:57:52;;;;;;;39.53;18.85;;;;;;;5.93;71.04;103769.13;5042505;28;20029;-40
2023/02/10 08:00:17;;;;;;;40.97;18.50;;;;;;;6.01;71.19;103773.22;5043325;28;20044;-38
2023/02/10 08:02:43;;;;;;;40.40;19.73;;;;;;;5.72;70.92;103775.19;5040826;28;20407;-42
2023/02/10 08:05:09;;;;;;;37.42;19.92;;;;;;;5.82;70.88;103784.56;5044546;28;20118;-42
2023/02/10 08:07:35;;;;;;;39.30;19.55;;;;;;;5.81;70.86;103795.69;5045014;28;20037;-41
2023/02/10 08:10:00;;;;;;;45.40;21.50;;;;;;;5.73;71.14;103783.03;5048644;28;20132;-41
2023/02/10 08:12:26;;;;;;;41.83;20.27;;;;;;;5.74;70.80;103773.59;5040321;28;20559;-39
2023/02/10 08:14:51;;;;;;;43.40;21.98;;;;;;;5.54;71.48;103776.31;5045156;28;20551;-44
2023/02/10 08:17:16;;;;;;;45.72;22.00;;;;;;;5.76;71.00;103785.00;5045614;28;20041;-41
2023/02/10 08:19:41;;;;;;;39.85;21.55;;;;;;;5.73;70.31;103783.03;5041184;28;20043;-41
2023/02/10 08:22:07;;;;;;;40.90;21.33;;;;;;;5.84;70.36;103776.16;5044409;28;20103;-40
2023/02/10 08:24:32;;;;;;;40.67;20.52;;;;;;;5.79;70.79;103777.47;5041235;28;20495;-39
2023/02/10 08:26:57;;;;;;;47.92;20.75;;;;;;;5.82;70.88;103774.22;5044517;28;20063;-41
2023/02/10 08:29:23;;;;;;;37.03;20.40;;;;;;;5.84;70.78;103786.50;5041153;28;20056;-39
2023/02/10 08:31:50;;;;;;;43.17;20.88;;;;;;;5.81;71.44;103781.06;5043525;28;20116;-43
2023/02/10 08:34:17;;;;;;;41.47;20.83;;;;;;;5.88;71.16;103782.50;5044829;28;20025;-41
2023/02/10 08:36:43;;;;;;;39.13;20.60;;;;;;;5.97;71.21;103778.97;5040667;28;20037;-42
2023/02/10 08:39:08;;;;;;;41.65;20.67;;;;;;;6.09;71.02;103776.41;5044811;28;20043;-42
2023/02/10 08:41:33;;;;;;;39.08;20.40;;;;;;;6.30;70.58;103774.56;5039751;28;20028;-41
2023/02/10 08:43:59;;;;;;;39.83;20.42;;;;;;;6.35;70.63;103776.72;5044181;28;20437;-45
2023/02/10 08:46:24;;;;;;;35.60;19.85;;;;;;;6.54;70.37;103771.25;5042475;28;20044;-39
2023/02/10 08:48:49;;;;;;;37.75;19.60;;;;;;;6.32;70.05;103773.00;5045458;28;20033;-44
2023/02/10 08:51:16;;;;;;;39.13;19.83;;;;;;;6.22;70.45;103773.09;5043371;28;20078;-41
2023/02/10 08:53:41;;;;;;;44.47;21.08;;;;;;;6.37;70.07;103776.84;5043349;28;20053;-45
2023/02/10 08:56:09;;;;;;;37.40;20.17;;;;;;;6.23;70.01;103783.53;5048032;28;20047;-40
2023/02/10 08:58:35;;;;;;;37.97;19.65;;;;;;;6.49;70.00;103782.94;5043575;28;20485;-39
2023/02/10 09:01:02;;;;;;;37.22;18.52;;;;;;;6.71;69.74;103788.09;5047519;28;20113;-39
2023/02/10 09:03:28;;;;;;;36.17;19.58;;;;;;;6.36;69.60;103783.69;5044910;28;20507;-40
2023/02/10 09:05:53;;;;;;;33.58;19.08;;;;;;;6.60;69.46;103787.25;5048964;28;20055;-41
2023/02/10 09:08:19;;;;;;;39.55;19.75;;;;;;;6.77;69.47;103785.97;5048402;28;20025;-41
2023/02/10 09:10:45;;;;;;;33.90;19.30;;;;;;;7.02;69.02;103783.47;5043776;28;20037;-42
2023/02/10 09:13:11;;;;;;;37.75;19.75;;;;;;;6.87;69.11;103789.34;5048411;28;20037;-42
2023/02/10 09:15:38;;;;;;;34.05;18.75;;;;;;;6.95;68.80;103786.44;5044623;28;20120;-46
2023/02/10 09:18:04;;;;;;;33.50;18.23;;;;;;;6.82;68.22;103793.28;5047832;28;20041;-41
2023/02/10 09:20:29;;;;;;;34.90;18.08;;;;;;;7.02;68.30;103789.56;5042115;28;20049;-41
2023/02/10 09:22:55;;;;;;;33.60;18.67;;;;;;;7.12;68.03;103804.13;5045853;28;20399;-43
2023/02/10 09:25:21;;;;;;;34.38;18.90;;;;;;;7.39;68.60;103795.75;5044181;28;20044;-41
2023/02/10 09:27:48;;;;;;;32.55;18.67;;;;;;;7.38;68.67;103793.94;5040413;28;20448;-41
2023/02/10 09:30:14;;;;;;;30.30;17.55;;;;;;;7.50;67.48;103792.25;5044229;28;20060;-40
2023/02/10 09:32:39;;;;;;;34.85;18.40;;;;;;;7.53;67.35;103794.16;5039784;28;20396;-42
2023/02/10 09:35:05;;;;;;;34.42;17.98;;;;;;;7.67;66.98;103798.66;5043989;28;20086;-43
2023/02/10 09:37:30;;;;;;;29.95;17.10;;;;;;;7.60;67.01;103791.22;5039975;28;20037;-44
2023/02/10 09:39:55;;;;;;;31.33;17.30;;;;;;;7.68;66.48;103795.28;5044650;28;20459;-44
2023/02/10 09:42:39;;;;;;;33.47;17.80;;;;;;;7.52;66.63;103798.47;5046978;28;20043;-42
2023/02/10 09:45:15;;;;;;;31.08;16.98;;;;;;;7.82;66.33;103798.84;5044332;28;20051;-43
2023/02/10 09:47:49;;;;;;;30.63;16.95;;;;;;;7.83;66.64;103795.47;5043732;28;20041;-41
2023/02/10 09:50:47;;;;;;;29.58;16.92;;;;;;;7.86;67.07;103791.41;5046889;28;20029;-40
2023/02/10 09:53:26;;;;;;;33.78;15.68;;;;;;;8.09;66.59;103782.63;5043666;28;20060;-43
2023/02/10 09:55:55;;;;;;;30.63;16.55;;;;;;;7.82;66.18;103794.56;5043753;28;20033;-40
2023/02/10 09:58:42;;;;;;;27.85;14.88;;;;;;;8.26;66.49;103786.38;5047630;28;20063;-41
2023/02/10 10:01:22;;;;;;;29.67;15.98;;;;;;;8.20;66.12;103792.06;5043292;28;20032;-41
2023/02/10 10:03:49;;;;;;;28.35;15.07;;;;;;;8.47;66.22;103794.00;5040780;28;20041;-41
2023/02/10 10:06:25;;;;;;;29.33;16.55;;;;;;;8.45;65.90;103786.88;5046994;28;20037;-40
2023/02/10 10:09:09;;;;;;;26.70;14.90;;;;;;;8.47;65.38;103791.41;5042442;28;20040;-41
2023/02/10 10:11:49;;;;;;;30.58;15.65;;;;;;;8.37;65.58;103783.75;5042920;28;20040;-40
2023/02/10 10:14:27;;;;;;;26.85;14.70;;;;;;;8.54;65.28;103793.59;5046164;28;20119;-40
2023/02/10 10:17:10;;;;;;;25.90;14.00;;;;;;;8.30;65.31;103793.56;5041472;28;20033;-42
2023/02/10 10:19:57;;;;;;;26.88;14.35;;;;;;;8.29;65.48;103789.19;5044359;28;20044;-43
2023/02/10 10:23:01;;;;;;;27.83;14.55;;;;;;;8.50;64.70;103790.69;5039798;28;20053;-39
2023/02/10 10:25:51;;;;;;;25.92;14.13;;;;;;;8.74;64.87;103770.63;4959422;28;20042;-39
2023/02/10 10:28:31;;;;;;;26.20;13.75;;;;;;;8.65;64.65;103770.94;4959698;28;20409;-42
2023/02/10 10:31:17;;;;;;;23.60;13.10;;;;;;;8.93;64.06;103771.06;5017141;28;20032;-40
2023/02/10 10:33:53;;;;;;;23.77;13.95;;;;;;;8.88;64.20;103773.38;5040827;28;20029;-40
2023/02/10 10:36:22;;;;;;;27.33;13.73;;;;;;;8.64;63.68;103768.22;5044191;28;20078;-42
2023/02/10 10:38:52;;;;;;;33.30;13.90;;;;;;;8.29;64.20;103760.59;5039903;28;20575;-42
2023/02/10 10:41:18;;;;;;;27.75;13.90;;;;;;;8.74;63.88;103753.31;5042049;28;20064;-40
2023/02/10 10:43:48;;;;;;;29.55;14.07;;;;;;;8.77;63.07;103761.34;5039068;28;20033;-42
2023/02/10 10:46:30;;;;;;;25.92;14.40;;;;;;;9.00;63.78;103768.06;5042715;28;20036;-42
2023/02/10 10:48:57;;;;;;;25.92;13.57;;;;;;;9.27;62.40;103763.75;5038917;28;20037;-40
2023/02/10 10:51:23;;;;;;;24.65;13.52;;;;;;;9.36;62.25;103762.63;5042525;28;20347;-40
2023/02/10 10:53:54;;;;;;;27.17;13.50;;;;;;;9.57;61.78;103770.94;5037311;28;20025;-41
2023/02/10 10:56:48;;;;;;;27.50;13.90;;;;;;;9.40;61.76;103762.81;5043037;28;20039;-42
2023/02/10 10:59:30;;;;;;;29.48;13.27;;;;;;;9.80;61.86;103755.84;5040642;28;20087;-41
2023/02/10 11:01:56;;;;;;;29.95;13.82;;;;;;;9.97;61.57;103755.16;5038660;28;20052;-41
2023/02/10 11:04:24;;;;;;;24.30;13.77;;;;;;;9.78;61.29;103756.63;5044113;28;20569;-40
2023/02/10 11:06:53;;;;;;;26.90;13.90;;;;;;;9.74;60.15;103759.88;5042359;28;20029;-40
2023/02/10 11:09:26;;;;;;;25.45;13.75;;;;;;;10.00;60.45;103758.84;5048215;28;20061;-40
2023/02/10 11:11:53;;;;;;;24.73;13.02;;;;;;;9.59;60.86;103764.09;5043108;28;20400;-41
2023/02/10 11:14:25;;;;;;;27.10;14.05;;;;;;;9.84;61.05;103763.03;5044478;28;20105;-40
2023/02/10 11:16:53;;;;;;;26.73;13.18;;;;;;;10.05;60.72;103756.56;5038861;28;20025;-39
2023/02/10 11:19:22;;;;;;;26.67;13.50;;;;;;;9.94;60.05;103752.38;5042190;28;20029;-41
2023/02/10 11:21:47;;;;;;;26.17;13.25;;;;;;;10.20;60.27;103747.06;5037883;28;20457;-39
2023/02/10 11:24:22;;;;;;;26.17;14.27;;;;;;;9.85;59.98;103734.47;5041775;28;20033;-43